createdAt,value
2023-03-20T00:02:00.165Z,7.07
2023-03-20T00:04:27.519Z,5.97
2023-03-20T00:06:54.866Z,5.80
2023-03-20T00:09:22.474Z,6.37
2023-03-20T00:11:51.283Z,6.33
2023-03-20T00:14:19.568Z,6.60
2023-03-20T00:16:47.915Z,6.40
2023-03-20T00:19:17.398Z,7.73
2023-03-20T00:21:46.596Z,6.53
2023-03-20T00:24:14.691Z,6.20
2023-03-20T00:26:42.814Z,6.30
2023-03-20T00:29:11.689Z,7.40
2023-03-20T00:31:40.072Z,8.30
2023-03-20T00:34:09.143Z,8.70
2023-03-20T00:36:36.586Z,9.13
2023-03-20T00:39:04.464Z,10.83
2023-03-20T00:41:33.356Z,10.70
2023-03-20T00:44:02.233Z,9.93
2023-03-20T00:46:30.763Z,9.73
2023-03-20T00:48:58.075Z,9.30
2023-03-20T00:51:25.430Z,9.53
2023-03-20T00:53:52.762Z,8.93
2023-03-20T00:56:24.578Z,9.60
2023-03-20T00:58:51.935Z,9.40
2023-03-20T01:01:20.080Z,8.07
2023-03-20T01:03:47.416Z,8.30
2023-03-20T01:06:14.773Z,8.40
2023-03-20T01:08:42.110Z,8.67
2023-03-20T01:11:10.601Z,8.50
2023-03-20T01:13:38.911Z,7.70
2023-03-20T01:16:06.876Z,8.63
2023-03-20T01:18:34.158Z,8.60
2023-03-20T01:21:01.513Z,8.60
2023-03-20T01:23:28.851Z,8.73
2023-03-20T01:25:56.211Z,8.47
2023-03-20T01:28:24.415Z,8.40
2023-03-20T01:30:52.400Z,8.30
2023-03-20T01:33:21.276Z,8.83
2023-03-20T01:35:49.266Z,11.80
2023-03-20T01:38:18.362Z,10.40
2023-03-20T01:40:59.175Z,11.00
2023-03-20T01:43:26.988Z,13.67
2023-03-20T01:46:14.142Z,14.60
2023-03-20T01:48:52.321Z,14.87
2023-03-20T01:51:22.047Z,15.33
2023-03-20T01:53:50.928Z,16.43
2023-03-20T01:56:18.586Z,16.37
2023-03-20T01:58:47.471Z,16.53
2023-03-20T02:01:15.759Z,16.20
2023-03-20T02:03:44.711Z,17.30
2023-03-20T02:06:12.419Z,16.53
2023-03-20T02:08:46.945Z,17.97
2023-03-20T02:11:16.327Z,18.63
2023-03-20T02:13:44.553Z,18.77
2023-03-20T02:16:12.924Z,19.33
2023-03-20T02:18:41.375Z,20.53
2023-03-20T02:21:27.003Z,19.80
2023-03-20T02:24:05.095Z,19.33
2023-03-20T02:26:34.952Z,18.83
2023-03-20T02:29:03.913Z,21.70
2023-03-20T02:31:38.493Z,20.20
2023-03-20T02:34:10.413Z,20.43
2023-03-20T02:36:39.305Z,20.63
2023-03-20T02:39:26.481Z,19.77
2023-03-20T02:41:55.366Z,22.00
2023-03-20T02:44:36.639Z,23.20
2023-03-20T02:47:05.542Z,22.40
2023-03-20T02:49:52.426Z,21.77
2023-03-20T02:52:21.333Z,20.97
2023-03-20T02:54:59.804Z,23.13
2023-03-20T02:57:28.676Z,22.17
2023-03-20T03:00:04.555Z,22.13
2023-03-20T03:02:34.311Z,24.20
2023-03-20T03:05:03.252Z,23.60
2023-03-20T03:07:32.609Z,23.60
2023-03-20T03:10:08.100Z,24.03
2023-03-20T03:12:44.616Z,24.27
2023-03-20T03:15:16.270Z,25.70
2023-03-20T03:17:45.315Z,27.93
2023-03-20T03:20:17.180Z,28.53
2023-03-20T03:22:44.901Z,30.33
2023-03-20T03:25:13.735Z,29.50
2023-03-20T03:27:42.606Z,32.10
2023-03-20T03:30:14.611Z,34.50
2023-03-20T03:32:52.710Z,32.87
2023-03-20T03:35:21.628Z,33.27
2023-03-20T03:37:50.699Z,34.30
2023-03-20T03:40:26.680Z,32.60
2023-03-20T03:42:55.753Z,35.10
2023-03-20T03:45:24.636Z,36.03
2023-03-20T03:47:53.517Z,35.03
2023-03-20T03:50:28.334Z,39.83
2023-03-20T03:52:58.187Z,37.33
2023-03-20T03:55:26.909Z,37.17
2023-03-20T03:57:58.919Z,38.13
2023-03-20T04:00:27.902Z,33.70
2023-03-20T04:02:56.512Z,35.57
2023-03-20T04:05:25.728Z,33.27
2023-03-20T04:07:56.870Z,35.60
2023-03-20T04:10:24.412Z,32.30
2023-03-20T04:12:52.008Z,33.67
2023-03-20T04:15:21.256Z,33.60
2023-03-20T04:17:48.589Z,36.27
2023-03-20T04:20:16.148Z,36.13
2023-03-20T04:22:43.480Z,35.23
2023-03-20T04:25:12.428Z,36.57
2023-03-20T04:27:39.763Z,35.03
2023-03-20T04:30:07.770Z,39.03
2023-03-20T04:32:35.141Z,39.17
2023-03-20T04:35:02.462Z,38.20
2023-03-20T04:37:30.380Z,38.50
2023-03-20T04:39:57.709Z,41.77
2023-03-20T04:42:25.134Z,42.80
2023-03-20T04:44:52.489Z,44.27
2023-03-20T04:47:19.832Z,45.57
2023-03-20T04:49:47.249Z,45.50
2023-03-20T04:52:14.582Z,45.27
2023-03-20T04:54:42.102Z,47.80
2023-03-20T04:57:09.444Z,45.17
2023-03-20T04:59:36.835Z,47.33
2023-03-20T05:02:04.155Z,49.20
2023-03-20T05:04:31.664Z,44.20
2023-03-20T05:06:59.124Z,48.60
2023-03-20T05:09:26.468Z,48.57
2023-03-20T05:11:53.831Z,46.07
2023-03-20T05:14:21.344Z,46.00
2023-03-20T05:16:49.798Z,48.63
2023-03-20T05:19:17.322Z,50.37
2023-03-20T05:21:44.744Z,48.00
2023-03-20T05:24:12.081Z,49.20
2023-03-20T05:26:39.424Z,46.73
2023-03-20T05:29:06.779Z,46.57
2023-03-20T05:31:34.141Z,47.90
2023-03-20T05:34:01.771Z,46.23
2023-03-20T05:36:29.206Z,45.37
2023-03-20T05:38:57.025Z,46.67
2023-03-20T05:41:24.360Z,42.77
2023-03-20T05:43:51.715Z,46.27
2023-03-20T05:46:19.098Z,41.03
2023-03-20T05:48:46.577Z,37.50
2023-03-20T05:51:14.023Z,39.53
2023-03-20T05:53:41.655Z,40.33
2023-03-20T05:56:09.195Z,41.60
2023-03-20T05:58:36.828Z,38.77
2023-03-20T06:01:04.172Z,37.67
2023-03-20T06:03:31.666Z,38.83
2023-03-20T06:05:59.088Z,41.63
2023-03-20T06:08:26.418Z,38.97
2023-03-20T06:10:53.749Z,40.20
2023-03-20T06:13:21.085Z,36.40
2023-03-20T06:15:48.468Z,39.43
2023-03-20T06:18:15.992Z,40.27
2023-03-20T06:20:43.508Z,40.00
2023-03-20T06:23:10.974Z,38.60
2023-03-20T06:25:38.561Z,39.37
2023-03-20T06:28:06.084Z,38.87
2023-03-20T06:30:33.439Z,37.77
2023-03-20T06:33:00.953Z,38.93
2023-03-20T06:35:30.011Z,39.33
2023-03-20T06:37:57.987Z,37.27
2023-03-20T06:40:27.205Z,38.00
2023-03-20T06:42:54.833Z,37.33
2023-03-20T06:45:22.831Z,37.70
2023-03-20T06:47:50.244Z,36.43
2023-03-20T06:50:17.706Z,38.70
2023-03-20T06:52:45.069Z,38.70
2023-03-20T06:55:12.700Z,37.70
2023-03-20T06:57:40.313Z,41.73
2023-03-20T07:00:09.634Z,40.10
2023-03-20T07:02:36.996Z,41.27
2023-03-20T07:05:04.525Z,41.67
2023-03-20T07:07:32.429Z,40.07
2023-03-20T07:09:59.768Z,38.13
2023-03-20T07:12:28.602Z,40.70
2023-03-20T07:14:56.133Z,36.80
2023-03-20T07:17:23.538Z,36.80
2023-03-20T07:19:51.558Z,38.30
2023-03-20T07:22:20.605Z,36.53
2023-03-20T07:24:47.949Z,36.57
2023-03-20T07:27:15.328Z,38.73
2023-03-20T07:29:42.683Z,36.13
2023-03-20T07:32:10.167Z,35.60
2023-03-20T07:34:37.793Z,33.67
2023-03-20T07:37:05.515Z,37.77
2023-03-20T07:39:32.992Z,36.20
2023-03-20T07:42:00.351Z,37.27
2023-03-20T07:44:27.696Z,34.70
2023-03-20T07:46:55.156Z,35.47
2023-03-20T07:49:22.570Z,33.60
2023-03-20T07:51:50.662Z,32.00
2023-03-20T07:54:18.475Z,31.13
2023-03-20T07:56:45.878Z,27.60
2023-03-20T07:59:13.804Z,30.90
2023-03-20T08:01:41.174Z,29.27
2023-03-20T08:04:08.854Z,28.53
2023-03-20T08:06:36.449Z,27.20
2023-03-20T08:09:04.077Z,25.40
2023-03-20T08:11:34.112Z,26.20
2023-03-20T08:14:00.597Z,23.50
2023-03-20T08:16:28.003Z,24.40
2023-03-20T08:18:56.955Z,23.40
2023-03-20T08:21:24.317Z,23.60
2023-03-20T08:23:51.664Z,22.70
2023-03-20T08:26:19.014Z,22.23
2023-03-20T08:28:48.207Z,21.00
2023-03-20T08:31:16.313Z,20.67
2023-03-20T08:33:44.361Z,18.63
2023-03-20T08:36:11.876Z,18.33
2023-03-20T08:38:39.214Z,14.23
2023-03-20T08:41:07.220Z,11.73
2023-03-20T08:43:34.577Z,13.20
2023-03-20T08:46:01.987Z,13.40
2023-03-20T08:48:29.315Z,13.77
2023-03-20T08:50:56.664Z,15.10
2023-03-20T08:53:25.042Z,15.57
2023-03-20T08:55:53.067Z,14.57
2023-03-20T08:58:21.275Z,16.03
2023-03-20T09:00:48.639Z,15.70
2023-03-20T09:03:17.550Z,16.03
2023-03-20T09:05:45.907Z,16.83
2023-03-20T09:08:13.825Z,16.73
2023-03-20T09:10:41.459Z,16.17
2023-03-20T09:13:25.711Z,15.47
2023-03-20T09:15:38.319Z,15.97
2023-03-20T09:18:05.875Z,16.70
2023-03-20T09:20:33.267Z,14.23
2023-03-20T09:23:00.624Z,15.97
2023-03-20T09:25:27.974Z,13.90
2023-03-20T09:27:55.940Z,14.27
2023-03-20T09:30:24.284Z,15.20
2023-03-20T09:32:52.041Z,12.67
2023-03-20T09:35:19.530Z,14.00
2023-03-20T09:37:47.033Z,13.63
2023-03-20T09:40:21.951Z,12.47
2023-03-20T09:42:50.831Z,14.23
2023-03-20T09:45:22.570Z,13.00
2023-03-20T09:47:51.456Z,12.57
2023-03-20T09:50:22.335Z,12.70
2023-03-20T09:53:07.690Z,12.63
2023-03-20T09:55:36.914Z,11.73
2023-03-20T09:58:05.879Z,12.53
2023-03-20T10:00:35.573Z,12.63
2023-03-20T10:03:04.576Z,11.73
2023-03-20T10:05:33.502Z,12.80
2023-03-20T10:08:02.397Z,12.70
2023-03-20T10:10:43.457Z,12.93
2023-03-20T10:13:12.313Z,12.70
2023-03-20T10:15:50.166Z,12.10
2023-03-20T10:18:19.099Z,13.23
2023-03-20T10:20:50.338Z,13.40
2023-03-20T10:23:21.597Z,12.47
2023-03-20T10:25:56.434Z,11.57
2023-03-20T10:28:25.341Z,11.60
2023-03-20T10:31:03.459Z,12.97
2023-03-20T10:33:32.298Z,11.20
2023-03-20T10:36:10.269Z,9.67
2023-03-20T10:38:48.211Z,8.83
2023-03-20T10:41:20.403Z,9.60
2023-03-20T10:43:49.301Z,9.60
2023-03-20T10:46:18.249Z,9.87
2023-03-20T10:48:47.445Z,9.37
2023-03-20T10:51:16.342Z,9.90
2023-03-20T10:53:45.213Z,9.73
2023-03-20T10:56:16.805Z,9.30
2023-03-20T10:58:44.649Z,8.90
2023-03-20T11:01:12.070Z,7.73
2023-03-20T11:03:41.033Z,8.40
2023-03-20T11:06:10.589Z,8.40
2023-03-20T11:08:39.628Z,8.03
2023-03-20T11:11:06.968Z,8.80
2023-03-20T11:13:38.844Z,9.10
2023-03-20T11:16:11.405Z,8.17
2023-03-20T11:18:40.318Z,8.53
2023-03-20T11:21:09.050Z,8.10
2023-03-20T11:23:36.398Z,5.87
2023-03-20T11:26:06.494Z,5.47
2023-03-20T11:28:35.628Z,5.30
2023-03-20T11:31:13.535Z,5.30
2023-03-20T11:33:45.270Z,5.73
2023-03-20T11:36:14.194Z,4.63
2023-03-20T11:38:45.819Z,4.00
2023-03-20T11:41:26.865Z,3.87
2023-03-20T11:43:54.481Z,3.50
2023-03-20T11:46:23.425Z,3.40
2023-03-20T11:49:07.603Z,2.83
2023-03-20T11:51:36.242Z,3.30
2023-03-20T11:54:05.311Z,2.83
2023-03-20T11:56:34.124Z,3.20
2023-03-20T11:59:08.675Z,3.60
2023-03-20T12:01:44.891Z,3.77
2023-03-20T12:04:14.062Z,4.33
2023-03-20T12:06:46.099Z,4.37
2023-03-20T12:09:14.965Z,4.40
2023-03-20T12:11:49.803Z,3.83
2023-03-20T12:14:18.952Z,4.60
2023-03-20T12:16:46.859Z,3.67
2023-03-20T12:19:17.390Z,4.00
2023-03-20T12:21:48.961Z,4.43
2023-03-20T12:24:34.129Z,4.20
2023-03-20T12:27:03.097Z,3.97
2023-03-20T12:29:34.900Z,3.93
2023-03-20T12:32:13.056Z,4.33
2023-03-20T12:34:41.955Z,4.33
2023-03-20T12:37:13.410Z,4.40
2023-03-20T12:39:42.332Z,4.80
2023-03-20T12:42:11.209Z,4.17
2023-03-20T12:44:42.776Z,4.30
2023-03-20T12:47:14.734Z,4.70
2023-03-20T12:49:49.970Z,3.77
2023-03-20T12:52:18.893Z,4.20
2023-03-20T12:54:47.761Z,4.17
2023-03-20T12:57:16.644Z,3.70
2023-03-20T12:59:48.223Z,4.23
2023-03-20T13:02:25.940Z,4.47
2023-03-20T13:05:01.132Z,3.90
2023-03-20T13:07:42.159Z,4.50
2023-03-20T13:10:11.099Z,4.23
2023-03-20T13:12:49.092Z,3.90
2023-03-20T13:15:33.047Z,3.90
2023-03-20T13:18:08.413Z,3.23
2023-03-20T13:20:40.165Z,3.23
2023-03-20T13:23:24.445Z,3.17
2023-03-20T13:25:59.532Z,3.50
2023-03-20T13:28:45.593Z,3.43
2023-03-20T13:31:31.014Z,3.50
2023-03-20T13:34:16.531Z,3.70
2023-03-20T13:36:45.563Z,3.47
2023-03-20T13:39:29.466Z,4.00
2023-03-20T13:41:57.891Z,3.33
2023-03-20T13:44:27.913Z,3.80
2023-03-20T13:46:59.947Z,3.63
2023-03-20T13:49:31.821Z,3.73
2023-03-20T13:52:03.650Z,3.67
2023-03-20T13:54:32.551Z,3.90
2023-03-20T13:57:04.389Z,4.03
2023-03-20T13:59:33.332Z,4.03
2023-03-20T14:02:02.421Z,3.80
2023-03-20T14:04:31.220Z,3.50
2023-03-20T14:06:59.576Z,3.87
2023-03-20T14:09:31.631Z,4.00
2023-03-20T14:12:03.249Z,3.60
2023-03-20T14:14:32.717Z,3.60
2023-03-20T14:17:10.484Z,4.00
2023-03-20T14:19:38.521Z,4.00
2023-03-20T14:22:06.720Z,4.17
2023-03-20T14:24:35.589Z,3.80
2023-03-20T14:27:03.266Z,3.83
2023-03-20T14:29:32.535Z,3.37
2023-03-20T14:32:07.442Z,3.63
2023-03-20T14:34:51.619Z,3.03
2023-03-20T14:37:26.251Z,2.70
2023-03-20T14:40:13.321Z,3.47
2023-03-20T14:42:51.248Z,2.27
2023-03-20T14:45:26.099Z,3.90
2023-03-20T14:48:01.775Z,2.80
2023-03-20T14:50:30.654Z,2.83
2023-03-20T14:53:16.266Z,2.60
2023-03-20T14:55:51.169Z,2.77
2023-03-20T14:58:36.623Z,2.63
2023-03-20T15:01:05.872Z,2.60
2023-03-20T15:03:33.870Z,2.10
2023-03-20T15:06:02.740Z,2.40
2023-03-20T15:08:31.664Z,2.60
2023-03-20T15:10:59.877Z,2.30
2023-03-20T15:13:28.498Z,2.50
2023-03-20T15:15:57.319Z,2.73
2023-03-20T15:18:26.158Z,2.90
2023-03-20T15:20:55.044Z,2.80
2023-03-20T15:23:22.494Z,2.53
2023-03-20T15:25:50.714Z,3.00
2023-03-20T15:28:20.021Z,3.10
2023-03-20T15:30:48.724Z,2.87
2023-03-20T15:33:20.624Z,3.10
2023-03-20T15:35:48.137Z,3.47
2023-03-20T15:38:16.665Z,3.10
2023-03-20T15:40:50.937Z,2.67
2023-03-20T15:43:17.451Z,2.60
2023-03-20T15:45:44.866Z,2.87
2023-03-20T15:48:16.069Z,3.33
2023-03-20T15:50:45.950Z,3.90
2023-03-20T15:53:14.865Z,3.47
2023-03-20T15:55:42.409Z,3.60
2023-03-20T15:58:11.326Z,3.60
2023-03-20T16:00:45.989Z,4.17
2023-03-20T16:03:14.896Z,3.90
2023-03-20T16:05:43.833Z,3.87
2023-03-20T16:08:15.574Z,4.40
2023-03-20T16:10:43.514Z,4.00
2023-03-20T16:13:12.378Z,4.00
2023-03-20T16:15:40.052Z,3.67
2023-03-20T16:18:08.099Z,4.10
2023-03-20T16:20:37.243Z,4.17
2023-03-20T16:23:07.048Z,3.30
2023-03-20T16:25:35.323Z,3.70
2023-03-20T16:28:05.533Z,3.73
2023-03-20T16:30:34.008Z,3.53
2023-03-20T16:33:03.156Z,3.53
2023-03-20T16:35:34.696Z,4.10
2023-03-20T16:38:05.385Z,3.47
2023-03-20T16:40:34.534Z,3.97
2023-03-20T16:43:06.536Z,4.03
2023-03-20T16:45:35.860Z,3.60
2023-03-20T16:48:13.825Z,4.10
2023-03-20T16:50:42.741Z,3.73
2023-03-20T16:53:14.555Z,3.70
2023-03-20T16:55:46.508Z,3.80
2023-03-20T16:58:24.680Z,3.30
2023-03-20T17:00:59.253Z,3.33
2023-03-20T17:03:31.468Z,4.40
2023-03-20T17:06:00.630Z,4.13
2023-03-20T17:08:38.723Z,3.50
2023-03-20T17:11:07.632Z,4.30
2023-03-20T17:13:34.978Z,4.90
2023-03-20T17:16:02.382Z,3.50
2023-03-20T17:18:29.997Z,3.70
2023-03-20T17:20:57.360Z,3.43
2023-03-20T17:23:24.694Z,3.60
2023-03-20T17:25:52.298Z,3.23
2023-03-20T17:28:21.192Z,3.20
2023-03-20T17:30:49.220Z,3.60
2023-03-20T17:33:17.460Z,3.43
2023-03-20T17:35:45.286Z,3.20
2023-03-20T17:38:16.907Z,3.60
2023-03-20T17:40:44.228Z,3.20
2023-03-20T17:43:12.984Z,4.03
2023-03-20T17:45:40.750Z,3.70
2023-03-20T17:48:10.489Z,3.43
2023-03-20T17:50:38.063Z,3.43
2023-03-20T17:53:06.058Z,3.47
2023-03-20T17:55:33.475Z,3.27
2023-03-20T17:58:01.006Z,3.90
2023-03-20T18:00:30.449Z,3.80
2023-03-20T18:02:57.860Z,3.43
2023-03-20T18:05:25.388Z,3.60
2023-03-20T18:07:52.804Z,3.00
2023-03-20T18:10:21.833Z,3.43
2023-03-20T18:12:49.163Z,3.07
2023-03-20T18:15:16.560Z,3.30
2023-03-20T18:17:43.907Z,3.30
2023-03-20T18:20:18.745Z,3.63
2023-03-20T18:22:46.307Z,3.27
2023-03-20T18:25:13.692Z,3.30
2023-03-20T18:27:41.019Z,3.20
2023-03-20T18:30:18.807Z,3.07
2023-03-20T18:32:46.453Z,3.00
2023-03-20T18:35:14.292Z,3.47
2023-03-20T18:37:42.026Z,3.53
2023-03-20T18:40:14.085Z,3.27
2023-03-20T18:42:41.441Z,3.40
2023-03-20T18:45:09.102Z,2.97
2023-03-20T18:47:36.433Z,3.33
2023-03-20T18:50:04.157Z,2.80
2023-03-20T18:52:31.684Z,3.00
2023-03-20T18:54:59.037Z,3.37
2023-03-20T18:57:26.856Z,3.97
2023-03-20T18:59:54.245Z,3.73
2023-03-20T19:02:21.556Z,3.60
2023-03-20T19:04:48.913Z,3.40
2023-03-20T19:07:16.294Z,3.60
2023-03-20T19:09:45.484Z,4.10
2023-03-20T19:12:12.908Z,3.57
2023-03-20T19:14:40.974Z,3.40
2023-03-20T19:17:09.845Z,3.83
2023-03-20T19:19:37.201Z,2.70
2023-03-20T19:22:05.408Z,3.80
2023-03-20T19:24:32.783Z,3.10
2023-03-20T19:27:00.140Z,3.60
2023-03-20T19:29:28.184Z,3.70
2023-03-20T19:31:55.973Z,3.10
2023-03-20T19:35:00.847Z,3.20
2023-03-20T19:36:52.282Z,2.83
2023-03-20T19:39:19.640Z,3.13
2023-03-20T19:41:47.225Z,2.87
2023-03-20T19:44:14.668Z,3.30
2023-03-20T19:46:42.640Z,3.23
2023-03-20T19:49:20.655Z,3.17
2023-03-20T19:51:48.915Z,3.37
2023-03-20T19:54:16.480Z,3.03
2023-03-20T19:56:43.838Z,3.00
2023-03-20T19:59:12.011Z,3.23
2023-03-20T20:01:39.437Z,3.23
2023-03-20T20:04:06.829Z,3.40
2023-03-20T20:06:34.247Z,3.40
2023-03-20T20:09:02.895Z,3.33
2023-03-20T20:11:30.268Z,2.60
2023-03-20T20:14:07.485Z,3.17
2023-03-20T20:16:26.629Z,3.37
2023-03-20T20:18:53.944Z,3.40
2023-03-20T20:23:50.282Z,3.17
2023-03-20T20:26:18.543Z,2.70
2023-03-20T20:28:46.271Z,3.90
2023-03-20T20:31:13.607Z,3.20
2023-03-20T20:33:42.215Z,3.27
2023-03-20T20:36:50.412Z,3.27
2023-03-20T20:38:50.522Z,3.33
2023-03-20T20:41:09.137Z,2.83
2023-03-20T20:44:11.437Z,2.73
2023-03-20T20:46:05.648Z,2.93
2023-03-20T20:48:33.182Z,3.27
2023-03-20T20:51:01.344Z,3.30
2023-03-20T20:53:28.655Z,3.03
2023-03-20T20:55:56.048Z,2.77
2023-03-20T20:58:24.244Z,3.17
2023-03-20T21:00:55.474Z,3.47
2023-03-20T21:03:22.467Z,3.57
2023-03-20T21:05:49.893Z,2.60
2023-03-20T21:08:18.710Z,2.83
2023-03-20T21:10:46.253Z,2.50
2023-03-20T21:13:13.845Z,3.00
2023-03-20T21:15:42.530Z,3.10
2023-03-20T21:18:09.888Z,2.60
2023-03-20T21:20:37.278Z,2.90
2023-03-20T21:23:04.666Z,2.70
2023-03-20T21:25:40.792Z,3.30
2023-03-20T21:28:02.915Z,2.83
2023-03-20T21:30:30.255Z,3.27
2023-03-20T21:32:57.708Z,2.50
2023-03-20T21:35:26.292Z,2.87
2023-03-20T21:40:22.660Z,3.30
2023-03-20T21:42:50.356Z,2.77
2023-03-20T21:50:50.195Z,2.47
2023-03-20T21:53:17.895Z,2.80
2023-03-20T21:56:21.997Z,2.30
2023-03-20T22:02:44.545Z,2.77
2023-03-20T22:08:26.525Z,2.73
2023-03-20T22:11:03.550Z,2.50
2023-03-20T22:25:46.744Z,2.50
2023-03-20T22:31:05.448Z,2.70
2023-03-20T22:43:14.952Z,2.47
2023-03-20T22:45:05.115Z,2.80
2023-03-20T22:47:33.099Z,3.00
2023-03-20T22:50:00.456Z,2.90
2023-03-20T22:52:41.635Z,3.13
2023-03-20T22:54:58.379Z,3.30
2023-03-20T22:57:38.512Z,2.50
2023-03-20T22:59:54.783Z,2.70
2023-03-20T23:02:22.523Z,2.93
2023-03-20T23:04:51.746Z,2.70
2023-03-20T23:07:19.186Z,2.40
2023-03-20T23:09:48.269Z,4.50
2023-03-20T23:12:16.264Z,2.90
2023-03-20T23:14:46.162Z,2.67
2023-03-20T23:17:12.624Z,3.10
2023-03-20T23:19:47.852Z,2.63
2023-03-20T23:22:09.085Z,3.03
2023-03-20T23:24:36.467Z,3.03
2023-03-20T23:27:03.821Z,4.03
2023-03-20T23:29:31.355Z,2.73
2023-03-20T23:31:58.713Z,2.70
2023-03-20T23:34:26.192Z,3.00
2023-03-20T23:36:53.733Z,3.07
2023-03-20T23:39:21.185Z,3.37
2023-03-20T23:44:17.530Z,2.63
2023-03-20T23:46:47.962Z,3.20
2023-03-20T23:49:14.104Z,3.27
2023-03-20T23:51:41.547Z,2.80
2023-03-20T23:54:09.018Z,2.70
2023-03-20T23:56:36.298Z,3.20
2023-03-20T23:59:14.972Z,3.10
